Time;durP1;ratioP1;P1;durP2;ratioP2;P2;SDS_P1;SDS_P2;PMS_P1;PMS_P2;Temp;Humidity;BMP_temperature;BMP_pressure;BME280_temperature;BME280_humidity;BME280_pressure;Samples;Min_cycle;Max_cycle;Signal;HPM_P1;HPM_P2
2022/07/25 00:00:27;;;;;;;7.75;4.35;;;;;;;;;;5021910;27;97768;-75
2022/07/25 00:02:55;;;;;;;6.47;4.28;;;;;;;;;;5043232;27;95492;-75
2022/07/25 00:05:23;;;;;;;7.57;4.70;;;;;;;;;;5025002;27;96446;-75
2022/07/25 00:07:49;;;;;;;12.57;4.85;;;;;;;;;;5014824;28;97369;-75
2022/07/25 00:10:15;;;;;;;11.00;5.05;;;;;;;;;;5002695;28;96882;-75
2022/07/25 00:12:42;;;;;;;11.88;4.68;;;;;;;;;;5016091;28;97388;-75
2022/07/25 00:15:08;;;;;;;10.30;5.35;;;;;;;;;;5013953;27;95340;-74
2022/07/25 00:17:35;;;;;;;10.27;5.28;;;;;;;;;;5017755;28;97234;-75
2022/07/25 00:20:02;;;;;;;12.07;5.13;;;;;;;;;;5024320;28;97401;-74
2022/07/25 00:22:28;;;;;;;12.70;4.63;;;;;;;;;;5029006;28;95183;-75
2022/07/25 00:24:55;;;;;;;15.30;5.82;;;;;;;;;;5015825;28;97154;-75
2022/07/25 00:27:21;;;;;;;9.02;5.38;;;;;;;;;;5028378;28;97696;-75
2022/07/25 00:29:47;;;;;;;10.15;5.60;;;;;;;;;;5018363;27;95509;-75
2022/07/25 00:32:14;;;;;;;10.13;5.72;;;;;;;;;;5022750;28;97513;-74
2022/07/25 00:34:40;;;;;;;8.18;5.75;;;;;;;;;;5024944;28;95238;-75
2022/07/25 00:37:07;;;;;;;9.27;5.97;;;;;;;;;;5027788;28;97205;-75
2022/07/25 00:39:33;;;;;;;8.25;5.80;;;;;;;;;;5024126;28;97696;-74
2022/07/25 00:42:01;;;;;;;8.70;6.35;;;;;;;;;;5030294;28;95452;-75
2022/07/25 00:44:30;;;;;;;10.88;6.40;;;;;;;;;;5024619;28;95624;-74
2022/07/25 00:46:56;;;;;;;8.70;6.22;;;;;;;;;;5012418;28;97293;-74
2022/07/25 00:49:23;;;;;;;8.25;5.88;;;;;;;;;;5021666;28;95231;-75
2022/07/25 00:51:50;;;;;;;9.15;6.35;;;;;;;;;;5014309;28;96820;-75
2022/07/25 00:54:17;;;;;;;10.30;6.38;;;;;;;;;;5010421;28;97033;-74
2022/07/25 00:56:44;;;;;;;9.73;6.22;;;;;;;;;;5025340;28;96817;-74
2022/07/25 00:59:10;;;;;;;10.48;6.75;;;;;;;;;;5023834;28;97388;-74
2022/07/25 01:01:37;;;;;;;13.15;6.72;;;;;;;;;;5016174;28;95695;-74
2022/07/25 01:04:05;;;;;;;9.93;6.80;;;;;;;;;;5017755;28;96937;-75
2022/07/25 01:06:32;;;;;;;12.38;6.75;;;;;;;;;;5015279;28;97640;-74
2022/07/25 01:08:58;;;;;;;10.35;7.15;;;;;;;;;;5019240;28;95317;-75
2022/07/25 01:11:25;;;;;;;11.65;6.82;;;;;;;;;;5024219;28;97022;-75
2022/07/25 01:13:51;;;;;;;12.10;6.97;;;;;;;;;;5036842;28;97151;-75
2022/07/25 01:16:17;;;;;;;9.85;6.65;;;;;;;;;;5017850;28;96833;-74
2022/07/25 01:18:44;;;;;;;9.63;7.32;;;;;;;;;;5021470;28;97390;-74
2022/07/25 01:21:10;;;;;;;12.55;7.03;;;;;;;;;;5017985;28;95380;-75
2022/07/25 01:23:37;;;;;;;11.13;7.13;;;;;;;;;;5026875;28;97181;-73
2022/07/25 01:26:03;;;;;;;15.18;6.78;;;;;;;;;;5012775;28;97694;-74
2022/07/25 01:28:30;;;;;;;12.18;6.68;;;;;;;;;;5021567;28;95321;-74
2022/07/25 01:30:56;;;;;;;15.25;7.40;;;;;;;;;;5030428;28;97339;-75
2022/07/25 01:33:23;;;;;;;12.30;7.40;;;;;;;;;;5029642;28;97219;-74
2022/07/25 01:35:49;;;;;;;10.02;7.22;;;;;;;;;;5030254;28;95467;-73
2022/07/25 01:38:16;;;;;;;13.68;6.82;;;;;;;;;;5016031;28;97418;-74
2022/07/25 01:40:43;;;;;;;11.48;7.57;;;;;;;;;;5015189;28;95276;-75
2022/07/25 01:43:09;;;;;;;10.77;6.85;;;;;;;;;;5031282;28;96755;-74
2022/07/25 01:45:36;;;;;;;12.80;6.90;;;;;;;;;;5008759;28;97374;-73
2022/07/25 01:48:02;;;;;;;12.15;7.65;;;;;;;;;;5016103;28;95458;-74
2022/07/25 01:50:29;;;;;;;14.15;7.40;;;;;;;;;;5018840;28;97060;-74
2022/07/25 01:52:55;;;;;;;12.32;7.88;;;;;;;;;;5034777;28;97442;-73
2022/07/25 01:55:22;;;;;;;12.80;8.02;;;;;;;;;;5032527;28;95475;-73
2022/07/25 01:57:50;;;;;;;10.55;7.20;;;;;;;;;;5035993;28;96767;-74
2022/07/25 02:00:17;;;;;;;14.00;7.57;;;;;;;;;;5026213;28;96186;-74
2022/07/25 02:02:44;;;;;;;11.02;7.88;;;;;;;;;;5020598;28;97103;-74
2022/07/25 02:05:11;;;;;;;11.00;7.43;;;;;;;;;;5013708;28;98059;-74
2022/07/25 02:07:38;;;;;;;10.50;7.40;;;;;;;;;;5017687;28;95789;-74
2022/07/25 02:10:05;;;;;;;11.40;7.20;;;;;;;;;;5020005;27;97143;-74
2022/07/25 02:12:32;;;;;;;17.38;7.43;;;;;;;;;;5033320;28;97396;-75
2022/07/25 02:14:58;;;;;;;9.65;7.15;;;;;;;;;;5032782;28;95352;-73
2022/07/25 02:17:25;;;;;;;14.27;7.13;;;;;;;;;;5027710;28;96817;-74
2022/07/25 02:19:52;;;;;;;18.77;7.53;;;;;;;;;;5018339;28;97640;-74
2022/07/25 02:22:18;;;;;;;10.80;7.35;;;;;;;;;;5015029;28;96992;-74
2022/07/25 02:24:44;;;;;;;13.80;7.40;;;;;;;;;;5019729;28;97543;-74
2022/07/25 02:27:11;;;;;;;11.80;7.38;;;;;;;;;;5031251;28;95360;-74
2022/07/25 02:29:37;;;;;;;11.60;7.40;;;;;;;;;;5031696;28;98042;-74
2022/07/25 02:32:04;;;;;;;11.95;6.60;;;;;;;;;;5028092;28;97478;-74
2022/07/25 02:34:30;;;;;;;12.50;7.00;;;;;;;;;;5015245;28;95386;-74
2022/07/25 02:36:57;;;;;;;13.48;6.90;;;;;;;;;;5000897;28;97169;-74
2022/07/25 02:39:24;;;;;;;13.65;7.03;;;;;;;;;;5029978;28;97691;-74
2022/07/25 02:41:50;;;;;;;11.48;7.82;;;;;;;;;;5022920;28;96813;-74
2022/07/25 02:44:16;;;;;;;11.95;7.50;;;;;;;;;;5033283;28;97846;-74
2022/07/25 02:46:43;;;;;;;13.10;7.22;;;;;;;;;;5017604;28;97005;-74
2022/07/25 02:49:10;;;;;;;13.25;7.78;;;;;;;;;;5031837;28;97045;-74
2022/07/25 02:51:36;;;;;;;11.63;7.38;;;;;;;;;;5001663;28;97746;-74
2022/07/25 02:54:03;;;;;;;10.68;7.47;;;;;;;;;;5023872;28;95975;-74
2022/07/25 02:56:31;;;;;;;12.10;8.50;;;;;;;;;;5030203;28;96822;-75
2022/07/25 02:58:58;;;;;;;15.30;8.32;;;;;;;;;;5012473;28;97400;-74
2022/07/25 03:01:24;;;;;;;17.20;8.30;;;;;;;;;;5016162;28;95351;-74
2022/07/25 03:03:51;;;;;;;12.57;8.60;;;;;;;;;;5021930;28;97334;-75
2022/07/25 03:06:17;;;;;;;15.68;8.35;;;;;;;;;;5017334;28;95317;-74
2022/07/25 03:08:44;;;;;;;16.98;8.85;;;;;;;;;;5026841;28;97534;-74
2022/07/25 03:11:11;;;;;;;14.60;8.68;;;;;;;;;;5031860;28;97361;-74
2022/07/25 03:13:37;;;;;;;17.55;9.00;;;;;;;;;;5003546;28;96972;-74
2022/07/25 03:16:05;;;;;;;15.13;9.00;;;;;;;;;;4995104;28;97230;-74
2022/07/25 03:18:31;;;;;;;13.43;8.95;;;;;;;;;;5023357;28;97690;-74
2022/07/25 03:20:57;;;;;;;16.13;9.85;;;;;;;;;;5012172;28;95078;-74
2022/07/25 03:23:25;;;;;;;13.98;9.38;;;;;;;;;;5021013;28;97046;-75
2022/07/25 03:25:52;;;;;;;12.35;8.43;;;;;;;;;;5032989;28;95361;-74
2022/07/25 03:28:18;;;;;;;13.70;9.45;;;;;;;;;;5025042;28;96813;-74
2022/07/25 03:30:45;;;;;;;16.73;10.07;;;;;;;;;;5001405;28;97584;-73
2022/07/25 03:33:11;;;;;;;19.42;10.15;;;;;;;;;;5013821;28;95399;-73
2022/07/25 03:35:37;;;;;;;15.48;9.63;;;;;;;;;;5022941;28;96891;-74
2022/07/25 03:38:04;;;;;;;18.13;10.50;;;;;;;;;;5028729;28;97395;-74
2022/07/25 03:40:30;;;;;;;13.35;9.32;;;;;;;;;;5032025;28;95218;-74
2022/07/25 03:42:57;;;;;;;17.13;9.82;;;;;;;;;;5018582;28;96813;-73
2022/07/25 03:45:23;;;;;;;16.15;10.25;;;;;;;;;;5017082;28;97878;-74
2022/07/25 03:47:50;;;;;;;17.00;10.60;;;;;;;;;;5010984;28;96957;-74
2022/07/25 03:50:16;;;;;;;18.92;10.38;;;;;;;;;;5013413;28;97696;-74
2022/07/25 03:52:42;;;;;;;17.20;10.60;;;;;;;;;;5026434;28;95128;-74
2022/07/25 03:55:09;;;;;;;15.27;10.80;;;;;;;;;;5011673;28;97230;-74
2022/07/25 03:57:36;;;;;;;21.45;11.68;;;;;;;;;;5020243;28;97756;-73
2022/07/25 04:00:03;;;;;;;17.90;10.52;;;;;;;;;;5015505;28;95252;-73
2022/07/25 04:02:30;;;;;;;14.35;10.20;;;;;;;;;;5020906;27;96888;-74
2022/07/25 04:04:56;;;;;;;18.73;10.45;;;;;;;;;;5019991;28;97252;-74
2022/07/25 04:07:23;;;;;;;19.10;10.25;;;;;;;;;;5016390;28;95383;-74
2022/07/25 04:09:49;;;;;;;16.20;9.95;;;;;;;;;;5025453;28;97513;-74
2022/07/25 04:12:16;;;;;;;15.10;9.27;;;;;;;;;;5031726;28;95463;-74
2022/07/25 04:14:42;;;;;;;16.15;10.48;;;;;;;;;;5030641;28;96809;-74
2022/07/25 04:17:08;;;;;;;14.15;8.88;;;;;;;;;;5030457;28;97424;-74
2022/07/25 04:19:35;;;;;;;16.63;10.00;;;;;;;;;;5000846;28;96718;-74
2022/07/25 04:22:01;;;;;;;14.52;9.73;;;;;;;;;;5014139;28;96804;-74
2022/07/25 04:24:28;;;;;;;16.98;10.20;;;;;;;;;;5029444;28;97575;-73
2022/07/25 04:26:54;;;;;;;15.10;9.77;;;;;;;;;;5012461;28;95357;-74
2022/07/25 04:29:20;;;;;;;14.27;9.15;;;;;;;;;;5028620;28;97222;-74
2022/07/25 04:31:47;;;;;;;15.50;9.52;;;;;;;;;;5000673;27;96321;-75
2022/07/25 04:34:13;;;;;;;15.60;10.18;;;;;;;;;;5030385;28;96910;-75
2022/07/25 04:36:40;;;;;;;15.40;9.27;;;;;;;;;;5019893;28;97517;-74
2022/07/25 04:39:06;;;;;;;16.75;9.55;;;;;;;;;;5023204;28;96168;-74
2022/07/25 04:41:32;;;;;;;15.73;9.52;;;;;;;;;;5032940;28;97282;-74
2022/07/25 04:43:59;;;;;;;15.18;9.30;;;;;;;;;;5030648;28;97428;-75
2022/07/25 04:46:25;;;;;;;17.13;9.10;;;;;;;;;;5030955;28;95361;-74
2022/07/25 04:48:51;;;;;;;11.32;8.55;;;;;;;;;;5033089;28;97064;-74
2022/07/25 04:51:18;;;;;;;14.27;8.40;;;;;;;;;;5029555;28;96292;-74
2022/07/25 04:53:44;;;;;;;14.43;8.00;;;;;;;;;;5032536;28;97134;-74
2022/07/25 04:56:11;;;;;;;15.18;8.60;;;;;;;;;;5032075;28;97458;-74
2022/07/25 04:58:37;;;;;;;14.45;8.77;;;;;;;;;;4999400;28;95437;-75
2022/07/25 19:47:53;;;;;;;8.88;1.90;;;;;;;;;;4653661;27;12542448;-75
2022/07/25 19:50:19;;;;;;;8.05;1.58;;;;;;;;;;5085879;27;96593;-75
2022/07/25 19:52:46;;;;;;;6.53;1.80;;;;;;;;;;5070842;27;97429;-75
2022/07/25 19:55:12;;;;;;;7.45;1.88;;;;;;;;;;5087591;27;95496;-76
2022/07/25 19:57:38;;;;;;;8.77;1.95;;;;;;;;;;5066969;27;96960;-75
2022/07/25 20:00:05;;;;;;;10.00;2.10;;;;;;;;;;5087584;27;97580;-75
2022/07/25 20:02:32;;;;;;;7.60;1.58;;;;;;;;;;5081811;27;96006;-75
2022/07/25 20:04:59;;;;;;;9.77;2.00;;;;;;;;;;5073370;27;96938;-75
2022/07/25 20:07:26;;;;;;;6.32;1.80;;;;;;;;;;5090151;27;97562;-76
2022/07/25 20:09:52;;;;;;;9.63;1.85;;;;;;;;;;5071375;27;96696;-75
2022/07/25 20:12:19;;;;;;;13.20;2.38;;;;;;;;;;5067349;27;97340;-75
2022/07/25 20:14:45;;;;;;;12.70;2.50;;;;;;;;;;5078352;27;95726;-74
2022/07/25 20:17:11;;;;;;;7.05;1.95;;;;;;;;;;5083709;27;96852;-76
2022/07/25 20:19:38;;;;;;;9.95;2.38;;;;;;;;;;5085762;27;97296;-75
2022/07/25 20:22:04;;;;;;;17.60;2.35;;;;;;;;;;5089223;27;95451;-75
2022/07/25 20:24:31;;;;;;;10.15;2.35;;;;;;;;;;5088525;27;97050;-76
2022/07/25 20:26:58;;;;;;;12.90;2.47;;;;;;;;;;5086400;27;97362;-76
2022/07/25 20:29:24;;;;;;;13.43;2.50;;;;;;;;;;5090766;27;95448;-75
2022/07/25 20:31:52;;;;;;;11.75;1.88;;;;;;;;;;5088278;27;97302;-80
2022/07/25 20:34:19;;;;;;;13.57;2.08;;;;;;;;;;5088910;27;95142;-76
2022/07/25 20:36:45;;;;;;;15.10;3.80;;;;;;;;;;5087784;27;97028;-79
2022/07/25 20:39:12;;;;;;;15.50;3.28;;;;;;;;;;5085533;27;97478;-75
2022/07/25 20:41:39;;;;;;;18.23;6.20;;;;;;;;;;5088369;27;95464;-77
2022/07/25 20:44:06;;;;;;;17.83;6.35;;;;;;;;;;5088905;27;96965;-76
2022/07/25 20:46:34;;;;;;;19.58;5.25;;;;;;;;;;5077688;27;97356;-79
2022/07/25 20:49:02;;;;;;;14.52;4.60;;;;;;;;;;5087306;27;95502;-79
2022/07/25 20:51:29;;;;;;;12.98;3.00;;;;;;;;;;5091404;27;96800;-77
2022/07/25 20:53:55;;;;;;;9.27;2.50;;;;;;;;;;5083634;27;96868;-75
2022/07/25 20:56:23;;;;;;;16.48;2.88;;;;;;;;;;5069958;27;97635;-76
2022/07/25 20:58:50;;;;;;;14.63;3.50;;;;;;;;;;5074480;27;97913;-75
2022/07/25 21:01:17;;;;;;;12.10;2.45;;;;;;;;;;5072201;27;95749;-75
2022/07/25 21:03:43;;;;;;;11.45;2.90;;;;;;;;;;5070979;27;95606;-75
2022/07/25 21:06:10;;;;;;;15.27;3.33;;;;;;;;;;5073875;27;97424;-75
2022/07/25 21:08:36;;;;;;;19.63;5.00;;;;;;;;;;5075228;27;95311;-75
2022/07/25 21:11:03;;;;;;;30.63;9.73;;;;;;;;;;5075577;27;96835;-76
2022/07/25 21:13:29;;;;;;;16.80;5.43;;;;;;;;;;5072095;27;97513;-76
2022/07/25 21:15:58;;;;;;;19.15;3.40;;;;;;;;;;5054898;27;96958;-77
2022/07/25 21:18:24;;;;;;;12.40;3.40;;;;;;;;;;5072077;27;97698;-76
2022/07/25 21:20:52;;;;;;;12.90;2.42;;;;;;;;;;5075595;27;95361;-76
2022/07/25 21:23:19;;;;;;;12.35;3.17;;;;;;;;;;5072422;27;96836;-76
2022/07/25 21:25:45;;;;;;;16.60;2.78;;;;;;;;;;5068909;27;97399;-76
2022/07/25 21:28:12;;;;;;;12.55;2.65;;;;;;;;;;5057522;27;95187;-76
2022/07/25 21:30:41;;;;;;;12.18;2.63;;;;;;;;;;5074950;27;96899;-75
2022/07/25 21:33:07;;;;;;;20.73;3.78;;;;;;;;;;5072263;27;97838;-77
2022/07/25 21:35:40;;;;;;;14.57;2.80;;;;;;;;;;5078492;27;95543;-79
2022/07/25 21:38:19;;;;;;;13.43;2.85;;;;;;;;;;5074190;27;97540;-76
2022/07/25 21:40:53;;;;;;;18.17;2.90;;;;;;;;;;5070568;27;95267;-76
2022/07/25 21:43:20;;;;;;;11.82;2.67;;;;;;;;;;5075138;27;97191;-76
2022/07/25 21:45:46;;;;;;;10.25;2.58;;;;;;;;;;5074534;27;97474;-78
2022/07/25 21:48:13;;;;;;;13.80;2.90;;;;;;;;;;5073497;27;95391;-75
2022/07/25 21:50:41;;;;;;;13.50;3.05;;;;;;;;;;5075152;27;96857;-75
2022/07/25 21:53:10;;;;;;;12.00;2.60;;;;;;;;;;5073748;27;97525;-75
2022/07/25 21:55:37;;;;;;;12.85;2.85;;;;;;;;;;5070126;27;95394;-75
2022/07/25 21:58:04;;;;;;;17.58;3.10;;;;;;;;;;5076048;27;97501;-75
2022/07/25 22:00:30;;;;;;;15.32;2.80;;;;;;;;;;5075109;27;95136;-76
2022/07/25 22:02:58;;;;;;;18.13;3.53;;;;;;;;;;5074931;27;96785;-75
2022/07/25 22:05:25;;;;;;;19.73;3.55;;;;;;;;;;5074115;27;97614;-75
2022/07/25 22:07:51;;;;;;;12.75;2.88;;;;;;;;;;5073059;27;95347;-75
2022/07/25 22:10:18;;;;;;;18.38;3.38;;;;;;;;;;5069850;27;96804;-75
2022/07/25 22:12:45;;;;;;;19.02;3.25;;;;;;;;;;5053908;27;97318;-76
2022/07/25 22:15:11;;;;;;;13.00;3.08;;;;;;;;;;5054443;27;95425;-77
2022/07/25 22:17:38;;;;;;;25.80;3.88;;;;;;;;;;5056667;27;96875;-75
2022/07/25 22:20:14;;;;;;;23.75;3.70;;;;;;;;;;5073194;27;95481;-75
2022/07/25 22:22:40;;;;;;;19.88;3.10;;;;;;;;;;5074992;27;97239;-75
2022/07/25 22:25:07;;;;;;;14.02;3.60;;;;;;;;;;5070542;27;97422;-74
2022/07/25 22:27:34;;;;;;;16.35;3.53;;;;;;;;;;5072747;27;95420;-75
2022/07/25 22:30:00;;;;;;;20.35;3.00;;;;;;;;;;5071284;27;96719;-74
2022/07/25 22:32:27;;;;;;;14.00;3.70;;;;;;;;;;5072438;27;96434;-75
2022/07/25 22:34:53;;;;;;;14.73;3.38;;;;;;;;;;5074210;27;95445;-75
2022/07/25 22:37:20;;;;;;;18.20;3.13;;;;;;;;;;5073945;27;96924;-75
2022/07/25 22:39:46;;;;;;;19.02;3.33;;;;;;;;;;5076223;27;97342;-75
2022/07/25 22:42:12;;;;;;;15.63;2.67;;;;;;;;;;5074126;27;96702;-75
2022/07/25 22:44:41;;;;;;;19.50;3.40;;;;;;;;;;5069559;27;97244;-75
2022/07/25 22:47:08;;;;;;;14.45;3.28;;;;;;;;;;5067874;27;96495;-76
2022/07/25 22:49:34;;;;;;;23.88;4.03;;;;;;;;;;5074204;27;96763;-75
2022/07/25 22:52:01;;;;;;;17.52;2.83;;;;;;;;;;5055482;27;97418;-75
2022/07/25 22:54:27;;;;;;;19.00;2.72;;;;;;;;;;5071013;27;95342;-77
2022/07/25 22:56:53;;;;;;;19.67;3.38;;;;;;;;;;5073497;27;95774;-75
2022/07/25 22:59:20;;;;;;;14.88;3.00;;;;;;;;;;5073759;27;97417;-75
2022/07/25 23:01:46;;;;;;;16.42;3.03;;;;;;;;;;5072958;27;96214;-75
2022/07/25 23:04:13;;;;;;;16.90;3.35;;;;;;;;;;5072506;27;97341;-77
2022/07/25 23:06:39;;;;;;;14.40;3.35;;;;;;;;;;5073431;27;95392;-75
2022/07/25 23:09:06;;;;;;;16.38;4.18;;;;;;;;;;5073299;27;97252;-75
2022/07/25 23:11:33;;;;;;;14.82;3.00;;;;;;;;;;5071938;27;97539;-75
2022/07/25 23:13:59;;;;;;;12.77;3.30;;;;;;;;;;5073589;27;95407;-75
2022/07/25 23:16:26;;;;;;;18.20;3.38;;;;;;;;;;5069308;27;97153;-75
2022/07/25 23:18:53;;;;;;;19.08;3.10;;;;;;;;;;5073029;27;97354;-75
2022/07/25 23:21:19;;;;;;;17.27;3.60;;;;;;;;;;5072186;27;95398;-74
2022/07/25 23:23:46;;;;;;;17.23;3.42;;;;;;;;;;5070511;27;97256;-75
2022/07/25 23:26:12;;;;;;;16.60;3.25;;;;;;;;;;5072374;27;95359;-75
2022/07/25 23:28:39;;;;;;;12.38;2.50;;;;;;;;;;5073449;27;97344;-75
2022/07/25 23:31:05;;;;;;;14.70;3.20;;;;;;;;;;5071403;27;97423;-75
2022/07/25 23:33:32;;;;;;;20.67;3.50;;;;;;;;;;5052278;27;96078;-78
2022/07/25 23:35:58;;;;;;;15.35;3.33;;;;;;;;;;5073806;27;96837;-76
2022/07/25 23:38:24;;;;;;;18.40;3.28;;;;;;;;;;5072407;27;96321;-75
2022/07/25 23:40:52;;;;;;;15.40;3.40;;;;;;;;;;5072617;27;95371;-75
2022/07/25 23:43:19;;;;;;;14.60;3.05;;;;;;;;;;5072918;27;97006;-75
2022/07/25 23:46:05;;;;;;;22.05;4.00;;;;;;;;;;5056022;27;99301;-75
2022/07/25 23:48:33;;;;;;;17.58;3.70;;;;;;;;;;5052531;27;97025;-75
2022/07/25 23:51:00;;;;;;;27.02;3.78;;;;;;;;;;5053568;27;96806;-75
2022/07/25 23:53:27;;;;;;;18.85;3.42;;;;;;;;;;5072541;27;95277;-78
2022/07/25 23:55:53;;;;;;;17.95;3.08;;;;;;;;;;5069368;27;97149;-75
2022/07/25 23:58:20;;;;;;;25.52;3.40;;;;;;;;;;5051102;27;97597;-76
